createdAt,value
2022-09-03T00:01:19.014Z,1.50
2022-09-03T00:03:55.610Z,1.80
2022-09-03T00:06:31.584Z,1.50
2022-09-03T00:09:00.811Z,1.73
2022-09-03T00:11:39.200Z,1.53
2022-09-03T00:14:07.663Z,1.50
2022-09-03T00:16:41.320Z,1.50
2022-09-03T00:19:07.652Z,1.73
2022-09-03T00:21:37.625Z,1.43
2022-09-03T00:24:06.041Z,1.90
2022-09-03T00:26:37.690Z,1.97
2022-09-03T00:29:13.488Z,1.40
2022-09-03T00:31:43.234Z,1.67
2022-09-03T00:34:30.695Z,1.50
2022-09-03T00:36:57.303Z,1.60
2022-09-03T00:39:25.055Z,1.57
2022-09-03T00:42:07.898Z,1.53
2022-09-03T00:44:54.128Z,1.63
2022-09-03T00:47:29.817Z,1.60
2022-09-03T00:50:04.766Z,1.50
2022-09-03T00:52:54.562Z,1.40
2022-09-03T00:55:20.804Z,1.50
2022-09-03T00:57:47.859Z,1.47
2022-09-03T01:00:16.547Z,1.50
2022-09-03T01:02:51.925Z,1.43
2022-09-03T01:05:27.804Z,1.90
2022-09-03T01:08:13.265Z,1.50
2022-09-03T01:10:43.608Z,1.60
2022-09-03T01:13:29.048Z,1.40
2022-09-03T01:16:13.735Z,1.50
2022-09-03T01:18:49.276Z,1.37
2022-09-03T01:21:36.685Z,1.50
2022-09-03T01:24:17.740Z,1.40
2022-09-03T01:26:53.633Z,1.40
2022-09-03T01:29:39.938Z,1.47
2022-09-03T01:32:17.933Z,1.50
2022-09-03T01:35:07.687Z,1.30
2022-09-03T01:37:39.224Z,1.30
2022-09-03T01:40:34.655Z,1.33
2022-09-03T01:43:12.530Z,1.50
2022-09-03T01:45:51.413Z,1.40
2022-09-03T01:48:27.670Z,1.43
2022-09-03T01:50:57.871Z,1.30
2022-09-03T01:53:39.863Z,1.50
2022-09-03T01:56:09.039Z,1.20
2022-09-03T01:58:39.093Z,1.57
2022-09-03T02:01:09.425Z,1.30
2022-09-03T02:03:41.114Z,1.40
2022-09-03T02:06:07.913Z,1.53
2022-09-03T02:08:34.273Z,1.27
2022-09-03T02:11:02.630Z,1.50
2022-09-03T02:13:31.938Z,1.60
2022-09-03T02:16:00.976Z,1.50
2022-09-03T02:18:30.854Z,1.20
2022-09-03T02:20:57.446Z,1.50
2022-09-03T02:23:27.662Z,1.30
2022-09-03T02:25:59.620Z,1.50
2022-09-03T02:28:26.803Z,1.50
2022-09-03T02:30:53.404Z,1.40
2022-09-03T02:33:20.080Z,1.37
2022-09-03T02:35:47.586Z,1.23
2022-09-03T02:38:15.451Z,1.40
2022-09-03T02:40:41.884Z,1.43
2022-09-03T02:43:11.445Z,1.70
2022-09-03T02:45:40.333Z,1.27
2022-09-03T02:48:09.027Z,1.70
2022-09-03T02:50:40.756Z,1.57
2022-09-03T02:53:07.329Z,1.53
2022-09-03T02:55:33.619Z,1.57
2022-09-03T02:58:00.424Z,1.57
2022-09-03T03:00:28.633Z,1.37
2022-09-03T03:02:55.615Z,1.37
2022-09-03T03:05:26.409Z,1.50
2022-09-03T03:07:52.898Z,1.50
2022-09-03T03:10:19.300Z,1.50
2022-09-03T03:12:45.657Z,1.40
2022-09-03T03:15:11.988Z,1.50
2022-09-03T03:17:38.329Z,2.17
2022-09-03T03:20:04.785Z,1.50
2022-09-03T03:22:31.051Z,1.40
2022-09-03T03:24:57.724Z,1.73
2022-09-03T03:27:24.077Z,1.60
2022-09-03T03:29:50.717Z,1.50
2022-09-03T03:32:16.964Z,1.60
2022-09-03T03:34:43.236Z,1.80
2022-09-03T03:37:09.475Z,1.70
2022-09-03T03:39:35.796Z,1.30
2022-09-03T03:42:02.290Z,1.87
2022-09-03T03:44:29.268Z,1.80
2022-09-03T03:46:55.524Z,1.60
2022-09-03T03:49:21.766Z,1.73
2022-09-03T03:51:48.021Z,1.40
2022-09-03T03:54:17.445Z,1.70
2022-09-03T03:56:44.004Z,1.77
2022-09-03T03:59:13.203Z,1.70
2022-09-03T04:01:40.446Z,1.70
2022-09-03T04:04:06.869Z,2.07
2022-09-03T04:06:33.176Z,1.80
2022-09-03T04:08:59.473Z,1.70
2022-09-03T04:11:26.043Z,1.60
2022-09-03T04:13:52.938Z,1.70
2022-09-03T04:16:20.514Z,1.90
2022-09-03T04:18:49.173Z,1.70
2022-09-03T04:21:21.059Z,1.80
2022-09-03T04:23:48.075Z,1.50
2022-09-03T04:26:15.719Z,1.70
2022-09-03T04:28:42.094Z,1.80
2022-09-03T04:31:10.450Z,1.93
2022-09-03T04:33:40.645Z,1.70
2022-09-03T04:36:11.753Z,2.00
2022-09-03T04:38:39.335Z,1.80
2022-09-03T04:41:06.177Z,1.83
2022-09-03T04:43:32.849Z,1.87
2022-09-03T04:46:04.117Z,1.70
2022-09-03T04:48:30.964Z,1.97
2022-09-03T04:51:07.580Z,1.90
2022-09-03T04:53:37.942Z,2.20
2022-09-03T04:56:11.756Z,2.10
2022-09-03T04:58:38.010Z,2.13
2022-09-03T05:01:09.001Z,1.80
2022-09-03T05:03:37.360Z,1.80
2022-09-03T05:06:03.616Z,2.20
2022-09-03T05:08:29.882Z,1.90
2022-09-03T05:11:00.244Z,2.40
2022-09-03T05:13:27.023Z,2.30
2022-09-03T05:15:53.893Z,1.90
2022-09-03T05:18:20.688Z,2.30
2022-09-03T05:20:46.934Z,2.27
2022-09-03T05:23:14.269Z,2.37
2022-09-03T05:25:40.832Z,2.20
2022-09-03T05:28:07.664Z,2.10
2022-09-03T05:30:33.908Z,2.10
2022-09-03T05:33:00.480Z,2.00
2022-09-03T05:35:30.156Z,2.23
2022-09-03T05:37:56.724Z,2.03
2022-09-03T05:40:23.008Z,2.13
2022-09-03T05:42:55.022Z,2.53
2022-09-03T05:45:21.308Z,2.20
2022-09-03T05:47:47.719Z,2.20
2022-09-03T05:50:13.988Z,2.00
2022-09-03T05:52:40.242Z,2.17
2022-09-03T05:55:08.795Z,2.30
2022-09-03T05:57:38.296Z,2.17
2022-09-03T06:00:04.797Z,2.07
2022-09-03T06:02:32.719Z,2.37
2022-09-03T06:04:59.103Z,2.00
2022-09-03T06:07:25.529Z,1.90
2022-09-03T06:09:51.779Z,2.10
2022-09-03T06:12:18.090Z,2.10
2022-09-03T06:14:44.352Z,2.00
2022-09-03T06:17:12.504Z,2.10
2022-09-03T06:19:38.839Z,1.97
2022-09-03T06:22:05.158Z,2.50
2022-09-03T06:24:31.400Z,2.03
2022-09-03T06:26:59.371Z,2.30
2022-09-03T06:29:25.611Z,2.30
2022-09-03T06:31:52.354Z,2.23
2022-09-03T06:34:18.940Z,2.30
2022-09-03T06:36:45.763Z,2.23
2022-09-03T06:39:12.190Z,2.10
2022-09-03T06:41:38.594Z,2.47
2022-09-03T06:44:06.155Z,2.27
2022-09-03T06:46:33.457Z,2.20
2022-09-03T06:49:00.388Z,2.10
2022-09-03T06:51:27.849Z,2.00
2022-09-03T06:53:58.761Z,2.17
2022-09-03T06:56:28.116Z,3.37
2022-09-03T06:58:55.373Z,2.17
2022-09-03T07:01:23.313Z,2.20
2022-09-03T07:03:55.932Z,2.17
2022-09-03T07:06:23.090Z,2.00
2022-09-03T07:08:49.354Z,2.20
2022-09-03T07:11:17.820Z,2.27
2022-09-03T07:13:45.481Z,2.10
2022-09-03T07:16:13.594Z,2.00
2022-09-03T07:18:40.485Z,2.07
2022-09-03T07:21:07.994Z,1.83
2022-09-03T07:23:35.188Z,1.90
2022-09-03T07:26:02.893Z,1.63
2022-09-03T07:28:29.516Z,2.27
2022-09-03T07:31:01.073Z,2.00
2022-09-03T07:33:33.537Z,2.00
2022-09-03T07:36:06.197Z,2.00
2022-09-03T07:38:33.198Z,2.20
2022-09-03T07:41:00.437Z,1.70
2022-09-03T07:43:28.021Z,1.80
2022-09-03T07:45:55.569Z,1.70
2022-09-03T07:48:21.894Z,2.00
2022-09-03T07:50:52.257Z,2.20
2022-09-03T07:53:20.788Z,2.17
2022-09-03T07:55:47.999Z,2.30
2022-09-03T07:58:14.322Z,2.03
2022-09-03T08:00:40.699Z,1.70
2022-09-03T08:03:08.555Z,2.10
2022-09-03T08:05:36.297Z,1.90
2022-09-03T08:08:06.274Z,1.97
2022-09-03T08:10:38.187Z,2.07
2022-09-03T08:13:07.416Z,2.00
2022-09-03T08:15:34.288Z,6.13
2022-09-03T08:18:03.628Z,2.70
2022-09-03T08:20:35.269Z,2.00
2022-09-03T08:23:02.722Z,1.97
2022-09-03T08:25:29.182Z,1.73
2022-09-03T08:27:57.908Z,1.93
2022-09-03T08:30:25.534Z,1.60
2022-09-03T08:32:52.000Z,1.90
2022-09-03T08:35:18.392Z,1.50
2022-09-03T08:37:45.817Z,1.60
2022-09-03T08:40:13.112Z,1.57
2022-09-03T08:42:57.972Z,1.70
2022-09-03T08:45:24.781Z,1.50
2022-09-03T08:48:15.516Z,1.73
2022-09-03T08:50:43.388Z,1.90
2022-09-03T08:53:16.879Z,1.50
2022-09-03T08:55:46.800Z,1.43
2022-09-03T08:58:18.554Z,1.80
2022-09-03T09:01:02.611Z,1.67
2022-09-03T09:03:47.775Z,1.57
2022-09-03T09:06:20.234Z,1.63
2022-09-03T09:08:56.449Z,1.90
2022-09-03T09:11:25.527Z,1.70
2022-09-03T09:13:58.819Z,1.70
2022-09-03T09:16:39.054Z,1.60
2022-09-03T09:19:24.898Z,1.93
2022-09-03T09:22:14.931Z,1.67
2022-09-03T09:24:46.292Z,1.93
2022-09-03T09:27:16.984Z,1.47
2022-09-03T09:29:46.214Z,1.83
2022-09-03T09:32:14.764Z,1.57
2022-09-03T09:34:41.360Z,1.40
2022-09-03T09:37:10.043Z,1.20
2022-09-03T09:39:36.613Z,1.40
2022-09-03T09:42:09.316Z,1.37
2022-09-03T09:44:36.407Z,1.30
2022-09-03T09:47:14.295Z,1.60
2022-09-03T09:49:51.843Z,1.53
2022-09-03T09:52:18.452Z,1.40
2022-09-03T09:54:48.324Z,1.40
2022-09-03T09:57:17.824Z,1.40
2022-09-03T09:59:44.498Z,1.33
2022-09-03T10:02:13.835Z,1.30
2022-09-03T10:04:49.153Z,1.37
2022-09-03T10:07:22.843Z,1.50
2022-09-03T10:10:09.380Z,1.10
2022-09-03T10:12:42.104Z,1.57
2022-09-03T10:15:08.344Z,1.20
2022-09-03T10:17:52.394Z,1.30
2022-09-03T10:20:33.779Z,1.27
2022-09-03T10:23:07.544Z,1.40
2022-09-03T10:25:39.183Z,1.10
2022-09-03T10:28:06.327Z,1.20
2022-09-03T10:30:39.331Z,1.10
2022-09-03T10:33:10.958Z,1.10
2022-09-03T10:35:51.893Z,1.30
2022-09-03T10:38:28.631Z,1.40
2022-09-03T10:41:03.354Z,1.47
2022-09-03T10:43:41.552Z,1.20
2022-09-03T10:46:14.685Z,1.57
2022-09-03T10:48:48.992Z,1.20
2022-09-03T10:51:18.174Z,1.40
2022-09-03T10:53:44.398Z,1.10
2022-09-03T10:56:17.282Z,1.37
2022-09-03T10:59:02.412Z,1.23
2022-09-03T11:01:38.010Z,1.20
2022-09-03T11:04:14.207Z,1.10
2022-09-03T11:06:47.778Z,1.30
2022-09-03T11:09:18.558Z,1.50
2022-09-03T11:11:51.693Z,1.30
2022-09-03T11:14:25.393Z,1.80
2022-09-03T11:16:54.182Z,1.33
2022-09-03T11:19:23.510Z,1.47
2022-09-03T11:21:51.955Z,1.10
2022-09-03T11:24:26.749Z,1.40
2022-09-03T11:26:57.749Z,1.10
2022-09-03T11:29:38.057Z,1.20
2022-09-03T11:32:10.827Z,1.47
2022-09-03T11:34:47.397Z,1.30
2022-09-03T11:37:21.195Z,1.27
2022-09-03T11:40:13.801Z,1.30
2022-09-03T11:42:41.892Z,1.40
2022-09-03T11:45:14.750Z,1.40
2022-09-03T11:47:42.536Z,1.40
2022-09-03T11:50:38.229Z,1.50
2022-09-03T11:53:09.475Z,1.17
2022-09-03T11:55:53.255Z,1.30
2022-09-03T11:58:24.209Z,1.70
2022-09-03T12:00:55.048Z,1.50
2022-09-03T12:03:43.440Z,1.30
2022-09-03T12:06:21.691Z,1.20
2022-09-03T12:09:07.827Z,1.30
2022-09-03T12:11:45.326Z,1.37
2022-09-03T12:14:37.625Z,1.60
2022-09-03T12:17:08.517Z,1.27
2022-09-03T12:19:44.894Z,1.07
2022-09-03T12:22:15.706Z,1.43
2022-09-03T12:24:44.434Z,1.50
2022-09-03T12:27:13.359Z,1.60
2022-09-03T12:29:50.150Z,1.40
2022-09-03T12:32:18.629Z,1.30
2022-09-03T12:34:44.952Z,1.50
2022-09-03T12:38:04.590Z,1.40
2022-09-03T12:40:15.900Z,1.67
2022-09-03T12:42:42.203Z,1.30
2022-09-03T12:45:12.330Z,1.40
2022-09-03T12:47:39.636Z,1.23
2022-09-03T12:50:13.576Z,1.03
2022-09-03T12:52:42.888Z,1.27
2022-09-03T12:55:18.667Z,1.43
2022-09-03T12:57:47.280Z,1.30
2022-09-03T13:00:15.115Z,1.50
2022-09-03T13:02:51.457Z,1.10
2022-09-03T13:05:20.471Z,1.20
2022-09-03T13:07:52.856Z,1.53
2022-09-03T13:10:25.105Z,1.27
2022-09-03T13:12:53.607Z,1.50
2022-09-03T13:15:22.198Z,1.50
2022-09-03T13:17:57.582Z,1.83
2022-09-03T13:20:35.067Z,1.50
2022-09-03T13:23:16.792Z,1.30
2022-09-03T13:25:49.028Z,1.30
2022-09-03T13:28:15.523Z,1.30
2022-09-03T13:30:53.817Z,1.20
2022-09-03T13:33:21.608Z,1.80
2022-09-03T13:35:56.144Z,1.50
2022-09-03T13:38:41.268Z,1.70
2022-09-03T13:41:26.438Z,1.50
2022-09-03T13:44:07.840Z,1.40
2022-09-03T13:46:44.355Z,1.83
2022-09-03T13:49:35.346Z,1.40
2022-09-03T13:52:04.261Z,1.60
2022-09-03T13:54:50.213Z,1.17
2022-09-03T13:57:20.209Z,1.55
2022-09-03T13:59:50.410Z,1.37
2022-09-03T14:02:16.965Z,1.33
2022-09-03T14:05:03.591Z,1.77
2022-09-03T14:07:45.324Z,1.40
2022-09-03T14:10:20.836Z,1.43
2022-09-03T14:12:55.598Z,1.30
2022-09-03T14:15:31.708Z,1.43
2022-09-03T14:18:14.732Z,1.57
2022-09-03T14:21:00.898Z,1.50
2022-09-03T14:23:44.349Z,2.72
2022-09-03T14:26:16.580Z,1.63
2022-09-03T14:28:49.914Z,1.40
2022-09-03T14:31:22.192Z,1.67
2022-09-03T14:33:57.724Z,1.30
2022-09-03T14:36:39.248Z,1.70
2022-09-03T14:39:13.455Z,1.33
2022-09-03T14:42:10.347Z,1.60
2022-09-03T14:44:55.588Z,1.50
2022-09-03T14:47:21.983Z,1.43
2022-09-03T14:50:07.021Z,1.53
2022-09-03T14:52:46.389Z,1.40
2022-09-03T14:55:24.465Z,1.90
2022-09-03T14:57:59.630Z,1.70
2022-09-03T15:00:32.125Z,1.70
2022-09-03T15:03:17.224Z,1.93
2022-09-03T15:05:49.716Z,1.70
2022-09-03T15:08:16.024Z,1.77
2022-09-03T15:10:44.935Z,1.70
2022-09-03T15:13:19.388Z,1.60
2022-09-03T15:15:52.660Z,1.30
2022-09-03T15:18:37.937Z,1.50
2022-09-03T15:21:20.779Z,1.60
2022-09-03T15:23:53.092Z,1.50
2022-09-03T15:26:29.001Z,1.80
2022-09-03T15:29:13.866Z,1.60
2022-09-03T15:31:59.080Z,1.77
2022-09-03T15:34:44.139Z,1.70
2022-09-03T15:37:13.370Z,1.70
2022-09-03T15:39:44.214Z,1.53
2022-09-03T15:42:14.896Z,1.50
2022-09-03T15:44:45.906Z,1.40
2022-09-03T15:47:14.430Z,1.50
2022-09-03T15:49:51.946Z,1.80
2022-09-03T15:52:25.230Z,1.57
2022-09-03T15:55:02.474Z,2.00
2022-09-03T15:57:33.264Z,1.80
2022-09-03T16:00:06.178Z,1.87
2022-09-03T16:02:39.978Z,1.90
2022-09-03T16:05:26.038Z,1.83
2022-09-03T16:07:56.549Z,1.80
2022-09-03T16:10:32.569Z,1.80
2022-09-03T16:13:17.989Z,2.07
2022-09-03T16:15:49.820Z,1.87
2022-09-03T16:18:30.217Z,1.90
2022-09-03T16:21:03.070Z,1.73
2022-09-03T16:23:41.617Z,1.80
2022-09-03T16:26:11.248Z,2.30
2022-09-03T16:28:43.087Z,2.03
2022-09-03T16:31:10.505Z,2.07
2022-09-03T16:33:36.780Z,2.20
2022-09-03T16:36:21.786Z,1.80
2022-09-03T16:39:06.499Z,2.10
2022-09-03T16:41:44.670Z,2.10
2022-09-03T16:44:16.928Z,2.13
2022-09-03T16:46:47.077Z,2.27
2022-09-03T16:49:25.147Z,1.97
2022-09-03T16:51:55.968Z,1.90
2022-09-03T16:54:22.865Z,2.30
2022-09-03T16:56:58.673Z,2.07
2022-09-03T16:59:34.938Z,2.10
2022-09-03T17:02:40.501Z,2.20
2022-09-03T17:05:24.256Z,2.07
2022-09-03T17:07:54.093Z,2.30
2022-09-03T17:10:43.804Z,2.03
2022-09-03T17:13:28.603Z,2.27
2022-09-03T17:16:24.488Z,2.43
2022-09-03T17:19:02.472Z,2.53
2022-09-03T17:21:38.737Z,2.17
2022-09-03T17:24:20.668Z,2.30
2022-09-03T17:27:12.766Z,2.20
2022-09-03T17:29:51.958Z,2.67
2022-09-03T17:32:27.980Z,2.63
2022-09-03T17:34:54.751Z,3.20
2022-09-03T17:37:21.080Z,2.60
2022-09-03T17:39:54.448Z,3.50
2022-09-03T17:42:32.510Z,2.90
2022-09-03T17:45:04.714Z,2.97
2022-09-03T17:47:49.981Z,3.43
2022-09-03T17:50:27.790Z,3.57
2022-09-03T17:52:57.126Z,3.63
2022-09-03T17:55:23.371Z,3.80
2022-09-03T17:57:57.768Z,3.53
2022-09-03T18:00:25.635Z,3.47
2022-09-03T18:02:56.183Z,3.50
2022-09-03T18:05:24.506Z,3.50
2022-09-03T18:07:56.754Z,3.53
2022-09-03T18:10:39.736Z,3.50
2022-09-03T18:13:28.145Z,3.67
2022-09-03T18:15:57.480Z,4.10
2022-09-03T18:18:27.660Z,3.80
2022-09-03T18:21:31.711Z,3.90
2022-09-03T18:24:20.276Z,3.77
2022-09-03T18:27:07.635Z,4.63
2022-09-03T18:30:02.199Z,4.00
2022-09-03T18:32:48.495Z,3.90
2022-09-03T18:35:33.446Z,3.47
2022-09-03T18:38:20.767Z,3.70
2022-09-03T18:41:17.264Z,3.50
2022-09-03T18:44:19.023Z,3.33
2022-09-03T18:50:38.902Z,3.00
2022-09-03T18:53:43.826Z,3.33
2022-09-03T18:56:40.951Z,3.10
2022-09-03T18:59:47.246Z,3.10
2022-09-03T19:02:41.321Z,3.40
2022-09-03T19:05:44.211Z,3.60
2022-09-03T19:08:34.923Z,3.00
2022-09-03T19:11:24.765Z,3.03
2022-09-03T19:14:10.160Z,3.03
2022-09-03T19:17:07.299Z,3.13
2022-09-03T19:19:56.282Z,2.90
2022-09-03T19:22:52.759Z,2.97
2022-09-03T19:25:38.160Z,2.80
2022-09-03T19:28:29.103Z,3.00
2022-09-03T19:31:23.196Z,2.97
2022-09-03T19:34:16.587Z,3.37
2022-09-03T19:37:04.606Z,3.40
2022-09-03T19:39:49.408Z,2.83
2022-09-03T19:42:43.274Z,2.90
2022-09-03T19:45:36.148Z,2.90
2022-09-03T19:48:33.449Z,2.80
2022-09-03T19:51:32.263Z,3.00
2022-09-03T19:54:18.176Z,2.90
2022-09-03T19:57:04.565Z,3.20
2022-09-03T19:59:53.406Z,2.53
2022-09-03T20:02:38.924Z,2.93
2022-09-03T20:05:26.169Z,3.03
2022-09-03T20:08:12.994Z,2.90
2022-09-03T20:10:41.676Z,2.50
2022-09-03T20:13:09.553Z,2.93
2022-09-03T20:15:41.666Z,2.70
2022-09-03T20:18:30.354Z,3.00
2022-09-03T20:21:16.605Z,3.33
2022-09-03T20:23:47.653Z,2.90
2022-09-03T20:26:40.258Z,2.80
2022-09-03T20:29:25.827Z,2.87
2022-09-03T20:32:14.796Z,2.40
2022-09-03T20:34:59.124Z,3.07
2022-09-03T20:37:36.058Z,2.73
2022-09-03T20:40:10.749Z,2.60
2022-09-03T20:42:55.948Z,2.80
2022-09-03T20:45:31.846Z,2.70
2022-09-03T20:48:01.336Z,2.90
2022-09-03T20:50:35.978Z,2.67
2022-09-03T20:53:03.228Z,3.80
2022-09-03T20:55:34.142Z,2.90
2022-09-03T20:58:10.566Z,2.53
2022-09-03T21:01:02.844Z,2.47
2022-09-03T21:03:50.055Z,2.80
2022-09-03T21:06:32.382Z,2.80
2022-09-03T21:09:16.210Z,2.60
2022-09-03T21:11:58.407Z,3.33
2022-09-03T21:14:33.536Z,2.50
2022-09-03T21:17:08.808Z,2.60
2022-09-03T21:19:56.238Z,2.60
2022-09-03T21:22:33.720Z,2.47
2022-09-03T21:25:06.097Z,2.30
2022-09-03T21:27:35.254Z,2.47
2022-09-03T21:30:06.298Z,2.27
2022-09-03T21:32:51.204Z,2.43
2022-09-03T21:35:24.963Z,2.00
2022-09-03T21:37:59.101Z,2.73
2022-09-03T21:40:27.938Z,2.60
2022-09-03T21:43:07.556Z,2.33
2022-09-03T21:45:37.248Z,2.23
2022-09-03T21:48:08.783Z,2.37
2022-09-03T21:50:41.757Z,2.50
2022-09-03T21:53:24.914Z,2.60
2022-09-03T21:56:11.964Z,2.37
2022-09-03T21:58:47.442Z,2.40
2022-09-03T22:01:20.847Z,2.60
2022-09-03T22:03:47.248Z,2.63
2022-09-03T22:06:16.440Z,2.73
2022-09-03T22:08:58.625Z,2.37
2022-09-03T22:11:29.876Z,2.30
2022-09-03T22:13:58.855Z,2.40
2022-09-03T22:16:46.308Z,2.17
2022-09-03T22:19:12.720Z,2.50
2022-09-03T22:21:58.355Z,2.50
2022-09-03T22:24:45.153Z,2.30
2022-09-03T22:27:25.201Z,2.27
2022-09-03T22:30:11.324Z,2.43
2022-09-03T22:32:56.452Z,2.33
2022-09-03T22:35:25.768Z,2.07
2022-09-03T22:37:55.021Z,2.60
2022-09-03T22:40:33.539Z,1.90
2022-09-03T22:42:59.809Z,2.10
2022-09-03T22:45:44.826Z,2.40
2022-09-03T22:48:14.118Z,2.20
2022-09-03T22:50:49.607Z,2.10
2022-09-03T22:53:42.068Z,2.10
2022-09-03T22:56:09.950Z,2.53
2022-09-03T22:58:44.335Z,1.97
2022-09-03T23:01:16.375Z,2.20
2022-09-03T23:03:52.841Z,2.07
2022-09-03T23:06:34.024Z,2.00
2022-09-03T23:09:05.670Z,2.03
2022-09-03T23:11:35.314Z,1.90
2022-09-03T23:14:08.180Z,2.10
2022-09-03T23:16:39.876Z,2.10
2022-09-03T23:21:50.429Z,2.43
2022-09-03T23:24:21.024Z,1.90
2022-09-03T23:26:51.326Z,2.10
2022-09-03T23:29:47.208Z,2.00
2022-09-03T23:32:14.832Z,2.20
2022-09-03T23:34:41.255Z,2.03
2022-09-03T23:40:11.768Z,2.13
2022-09-03T23:42:50.135Z,1.90
2022-09-03T23:45:33.766Z,1.97
2022-09-03T23:48:00.070Z,1.83
2022-09-03T23:50:44.985Z,1.57
2022-09-03T23:53:24.945Z,2.00
2022-09-03T23:56:10.215Z,1.90
2022-09-03T23:58:48.341Z,1.90
